Página principal
METAR-TAF:

METAR-TAF

Aeroportos :

Roscommon County - Blodgett Memorial Airport

Houghton Lake, Michigan, Estados Unidos

latitude: 44-21-04N, longitude: 084-40-27W, altura: 350 m

Observação actual do tempo

O boletim foi feito há 20 minutos, às 20:53 UTC
Vento 15 kt de nor-noroeste com rajadas de 20 kt
Temperatura 32°C
Humidade 28%
Pressão 1011 hPa
Visibilidade: 16.1 km
Céu limpo

METAR: KHTL 272053Z AUTO 33015G20KT 10SM CLR 32/11 A2985 RMK AO2 SLP104 T03220111 55001

Hora: 17:13 (21:13 UTC)


TAF: em falta

Observações e previsões do tempo de mais de 4000 aeroportos (mensagens METAR e TAF).

As estações disponíveis são os pontos amarelos e vermelhos sobre o mapa.

Mova o rato sobre o mapa para ver o nome da estação.

Depois clique no ponto para visualizar as observações e previsões meteorológicas.

Para alterar o mapa : clique nos botões verdes com uma cruz preta para aumentar o zoom; no botão verde com uma pitada de zoom; ou nas setas verdes para mapas adjacentes.


METAR-TAF: